sensor_id;sensor_type;location;lat;lon;timestamp;P1;durP1;ratioP1;P2;durP2;ratioP2
34920;SDS011;21128;50.016;20.002;2022-09-09T00:00:21;8.10;;;6.45;;
34920;SDS011;21128;50.016;20.002;2022-09-09T00:03:18;9.23;;;6.80;;
34920;SDS011;21128;50.016;20.002;2022-09-09T00:08:29;7.93;;;6.60;;
34920;SDS011;21128;50.016;20.002;2022-09-09T00:11:01;7.03;;;6.20;;
34920;SDS011;21128;50.016;20.002;2022-09-09T00:13:33;7.70;;;6.90;;
34920;SDS011;21128;50.016;20.002;2022-09-09T00:18:46;8.55;;;6.95;;
34920;SDS011;21128;50.016;20.002;2022-09-09T00:21:16;9.50;;;7.23;;
34920;SDS011;21128;50.016;20.002;2022-09-09T00:23:48;9.60;;;6.50;;
34920;SDS011;21128;50.016;20.002;2022-09-09T00:26:22;10.15;;;7.00;;
34920;SDS011;21128;50.016;20.002;2022-09-09T00:29:38;8.03;;;7.07;;
34920;SDS011;21128;50.016;20.002;2022-09-09T00:31:37;8.83;;;6.63;;
34920;SDS011;21128;50.016;20.002;2022-09-09T00:34:08;9.70;;;7.20;;
34920;SDS011;21128;50.016;20.002;2022-09-09T00:36:43;11.95;;;6.97;;
34920;SDS011;21128;50.016;20.002;2022-09-09T00:39:13;9.23;;;7.33;;
34920;SDS011;21128;50.016;20.002;2022-09-09T00:44:30;11.57;;;7.67;;
34920;SDS011;21128;50.016;20.002;2022-09-09T00:52:22;12.63;;;8.23;;
34920;SDS011;21128;50.016;20.002;2022-09-09T00:57:35;8.97;;;7.93;;
34920;SDS011;21128;50.016;20.002;2022-09-09T01:08:22;11.60;;;8.83;;
34920;SDS011;21128;50.016;20.002;2022-09-09T01:10:51;12.00;;;8.07;;
34920;SDS011;21128;50.016;20.002;2022-09-09T01:13:27;11.50;;;7.80;;
34920;SDS011;21128;50.016;20.002;2022-09-09T01:16:00;10.13;;;8.30;;
34920;SDS011;21128;50.016;20.002;2022-09-09T01:18:29;9.23;;;8.23;;
34920;SDS011;21128;50.016;20.002;2022-09-09T01:22:00;11.63;;;8.07;;
34920;SDS011;21128;50.016;20.002;2022-09-09T01:26:32;11.37;;;7.50;;
34920;SDS011;21128;50.016;20.002;2022-09-09T01:29:00;10.90;;;6.97;;
34920;SDS011;21128;50.016;20.002;2022-09-09T01:31:28;13.63;;;6.97;;
34920;SDS011;21128;50.016;20.002;2022-09-09T01:33:56;9.63;;;6.77;;
34920;SDS011;21128;50.016;20.002;2022-09-09T01:36:32;10.03;;;6.73;;
34920;SDS011;21128;50.016;20.002;2022-09-09T01:39:01;7.10;;;5.70;;
34920;SDS011;21128;50.016;20.002;2022-09-09T01:41:28;7.95;;;5.65;;
34920;SDS011;21128;50.016;20.002;2022-09-09T01:43:55;6.67;;;5.97;;
34920;SDS011;21128;50.016;20.002;2022-09-09T01:46:28;7.57;;;5.93;;
34920;SDS011;21128;50.016;20.002;2022-09-09T01:48:55;7.50;;;5.43;;
34920;SDS011;21128;50.016;20.002;2022-09-09T01:51:22;6.50;;;5.25;;
34920;SDS011;21128;50.016;20.002;2022-09-09T01:53:49;9.55;;;5.47;;
34920;SDS011;21128;50.016;20.002;2022-09-09T01:56:35;8.53;;;5.60;;
34920;SDS011;21128;50.016;20.002;2022-09-09T02:01:44;9.70;;;5.90;;
34920;SDS011;21128;50.016;20.002;2022-09-09T02:06:58;7.30;;;5.95;;
34920;SDS011;21128;50.016;20.002;2022-09-09T02:09:26;7.20;;;6.10;;
34920;SDS011;21128;50.016;20.002;2022-09-09T02:11:57;12.60;;;6.60;;
34920;SDS011;21128;50.016;20.002;2022-09-09T02:14:30;11.20;;;6.60;;
34920;SDS011;21128;50.016;20.002;2022-09-09T02:17:21;7.90;;;6.27;;
34920;SDS011;21128;50.016;20.002;2022-09-09T02:19:46;9.65;;;6.60;;
34920;SDS011;21128;50.016;20.002;2022-09-09T02:22:18;8.53;;;6.80;;
34920;SDS011;21128;50.016;20.002;2022-09-09T02:24:46;10.20;;;7.37;;
34920;SDS011;21128;50.016;20.002;2022-09-09T02:27:13;9.73;;;8.13;;
34920;SDS011;21128;50.016;20.002;2022-09-09T02:29:41;9.20;;;7.67;;
34920;SDS011;21128;50.016;20.002;2022-09-09T02:32:16;9.07;;;7.00;;
34920;SDS011;21128;50.016;20.002;2022-09-09T02:34:44;10.20;;;7.33;;
34920;SDS011;21128;50.016;20.002;2022-09-09T02:37:11;10.37;;;8.70;;
34920;SDS011;21128;50.016;20.002;2022-09-09T02:39:40;11.50;;;7.00;;
34920;SDS011;21128;50.016;20.002;2022-09-09T02:42:06;9.00;;;7.07;;
34920;SDS011;21128;50.016;20.002;2022-09-09T02:44:40;11.77;;;7.70;;
34920;SDS011;21128;50.016;20.002;2022-09-09T02:52:08;8.10;;;7.13;;
34920;SDS011;21128;50.016;20.002;2022-09-09T02:54:40;9.48;;;7.58;;
34920;SDS011;21128;50.016;20.002;2022-09-09T02:57:27;12.60;;;7.63;;
34920;SDS011;21128;50.016;20.002;2022-09-09T02:59:55;10.70;;;7.87;;
34920;SDS011;21128;50.016;20.002;2022-09-09T03:02:23;10.63;;;8.00;;
34920;SDS011;21128;50.016;20.002;2022-09-09T03:04:50;12.53;;;7.60;;
34920;SDS011;21128;50.016;20.002;2022-09-09T03:07:18;14.00;;;8.17;;
34920;SDS011;21128;50.016;20.002;2022-09-09T03:09:45;14.70;;;7.85;;
34920;SDS011;21128;50.016;20.002;2022-09-09T03:12:12;9.80;;;8.30;;
34920;SDS011;21128;50.016;20.002;2022-09-09T03:14:38;11.90;;;8.33;;
34920;SDS011;21128;50.016;20.002;2022-09-09T03:17:05;14.37;;;10.07;;
34920;SDS011;21128;50.016;20.002;2022-09-09T03:19:32;10.23;;;8.83;;
34920;SDS011;21128;50.016;20.002;2022-09-09T03:22:00;12.43;;;9.23;;
34920;SDS011;21128;50.016;20.002;2022-09-09T03:24:27;10.60;;;9.00;;
34920;SDS011;21128;50.016;20.002;2022-09-09T03:26:53;14.43;;;8.73;;
34920;SDS011;21128;50.016;20.002;2022-09-09T03:29:22;16.10;;;8.80;;
34920;SDS011;21128;50.016;20.002;2022-09-09T03:31:55;15.90;;;8.40;;
34920;SDS011;21128;50.016;20.002;2022-09-09T03:34:29;11.60;;;8.73;;
34920;SDS011;21128;50.016;20.002;2022-09-09T03:36:55;12.43;;;8.00;;
34920;SDS011;21128;50.016;20.002;2022-09-09T03:39:22;11.37;;;8.00;;
34920;SDS011;21128;50.016;20.002;2022-09-09T03:41:49;13.47;;;8.47;;
34920;SDS011;21128;50.016;20.002;2022-09-09T03:44:15;10.77;;;7.27;;
34920;SDS011;21128;50.016;20.002;2022-09-09T03:46:48;9.13;;;6.73;;
34920;SDS011;21128;50.016;20.002;2022-09-09T03:49:15;9.43;;;7.00;;
34920;SDS011;21128;50.016;20.002;2022-09-09T03:51:43;8.78;;;7.20;;
34920;SDS011;21128;50.016;20.002;2022-09-09T03:54:09;13.43;;;6.37;;
34920;SDS011;21128;50.016;20.002;2022-09-09T03:56:43;7.95;;;6.50;;
34920;SDS011;21128;50.016;20.002;2022-09-09T03:59:10;9.80;;;6.53;;
34920;SDS011;21128;50.016;20.002;2022-09-09T04:01:37;14.30;;;6.60;;
34920;SDS011;21128;50.016;20.002;2022-09-09T04:04:03;12.90;;;7.03;;
34920;SDS011;21128;50.016;20.002;2022-09-09T04:06:30;12.43;;;7.13;;
34920;SDS011;21128;50.016;20.002;2022-09-09T04:08:57;13.53;;;7.70;;
34920;SDS011;21128;50.016;20.002;2022-09-09T04:11:23;9.87;;;7.53;;
34920;SDS011;21128;50.016;20.002;2022-09-09T04:13:50;11.73;;;7.17;;
34920;SDS011;21128;50.016;20.002;2022-09-09T04:16:17;9.13;;;6.57;;
34920;SDS011;21128;50.016;20.002;2022-09-09T04:18:43;14.03;;;7.43;;
34920;SDS011;21128;50.016;20.002;2022-09-09T04:21:10;11.10;;;7.67;;
34920;SDS011;21128;50.016;20.002;2022-09-09T04:23:39;14.00;;;7.90;;
34920;SDS011;21128;50.016;20.002;2022-09-09T04:26:06;14.95;;;7.50;;
34920;SDS011;21128;50.016;20.002;2022-09-09T04:28:39;15.70;;;7.90;;
34920;SDS011;21128;50.016;20.002;2022-09-09T04:31:11;10.83;;;7.93;;
34920;SDS011;21128;50.016;20.002;2022-09-09T04:33:38;19.40;;;7.50;;
34920;SDS011;21128;50.016;20.002;2022-09-09T04:36:05;9.70;;;7.60;;
34920;SDS011;21128;50.016;20.002;2022-09-09T04:38:32;11.20;;;8.05;;
34920;SDS011;21128;50.016;20.002;2022-09-09T04:40:59;12.27;;;7.70;;
34920;SDS011;21128;50.016;20.002;2022-09-09T04:43:25;8.97;;;7.40;;
34920;SDS011;21128;50.016;20.002;2022-09-09T04:45:58;12.30;;;8.00;;
34920;SDS011;21128;50.016;20.002;2022-09-09T04:48:25;11.20;;;7.67;;
34920;SDS011;21128;50.016;20.002;2022-09-09T04:50:59;15.10;;;8.23;;
34920;SDS011;21128;50.016;20.002;2022-09-09T04:53:27;8.90;;;7.60;;
34920;SDS011;21128;50.016;20.002;2022-09-09T04:56:04;8.53;;;7.33;;
34920;SDS011;21128;50.016;20.002;2022-09-09T04:58:37;9.95;;;7.15;;
34920;SDS011;21128;50.016;20.002;2022-09-09T05:03:32;10.67;;;6.40;;
34920;SDS011;21128;50.016;20.002;2022-09-09T05:06:13;12.17;;;7.10;;
34920;SDS011;21128;50.016;20.002;2022-09-09T05:08:40;9.17;;;6.80;;
34920;SDS011;21128;50.016;20.002;2022-09-09T05:11:14;10.90;;;7.03;;
34920;SDS011;21128;50.016;20.002;2022-09-09T05:13:42;16.90;;;7.50;;
34920;SDS011;21128;50.016;20.002;2022-09-09T05:16:09;13.72;;;7.87;;
34920;SDS011;21128;50.016;20.002;2022-09-09T05:18:38;8.80;;;6.87;;
34920;SDS011;21128;50.016;20.002;2022-09-09T05:21:04;13.40;;;7.67;;
34920;SDS011;21128;50.016;20.002;2022-09-09T05:23:32;8.87;;;7.10;;
34920;SDS011;21128;50.016;20.002;2022-09-09T05:26:00;11.13;;;6.67;;
34920;SDS011;21128;50.016;20.002;2022-09-09T05:28:27;10.90;;;6.07;;
34920;SDS011;21128;50.016;20.002;2022-09-09T05:31:01;8.37;;;6.30;;
34920;SDS011;21128;50.016;20.002;2022-09-09T05:33:31;8.67;;;6.63;;
34920;SDS011;21128;50.016;20.002;2022-09-09T05:36:02;12.80;;;6.17;;
34920;SDS011;21128;50.016;20.002;2022-09-09T05:38:31;10.85;;;5.92;;
34920;SDS011;21128;50.016;20.002;2022-09-09T05:41:00;7.23;;;6.30;;
34920;SDS011;21128;50.016;20.002;2022-09-09T05:43:28;7.23;;;6.33;;
34920;SDS011;21128;50.016;20.002;2022-09-09T05:46:09;13.67;;;6.77;;
34920;SDS011;21128;50.016;20.002;2022-09-09T05:48:37;10.57;;;6.90;;
34920;SDS011;21128;50.016;20.002;2022-09-09T05:51:06;11.83;;;6.80;;
34920;SDS011;21128;50.016;20.002;2022-09-09T05:53:36;9.03;;;6.67;;
34920;SDS011;21128;50.016;20.002;2022-09-09T05:58:36;10.27;;;7.77;;
34920;SDS011;21128;50.016;20.002;2022-09-09T06:01:04;9.90;;;8.27;;
34920;SDS011;21128;50.016;20.002;2022-09-09T06:03:32;9.73;;;7.17;;
34920;SDS011;21128;50.016;20.002;2022-09-09T06:06:07;15.77;;;7.83;;
34920;SDS011;21128;50.016;20.002;2022-09-09T06:08:34;10.23;;;8.03;;
34920;SDS011;21128;50.016;20.002;2022-09-09T06:11:04;13.30;;;8.30;;
34920;SDS011;21128;50.016;20.002;2022-09-09T06:13:31;11.13;;;8.10;;
34920;SDS011;21128;50.016;20.002;2022-09-09T06:15:58;7.73;;;6.93;;
34920;SDS011;21128;50.016;20.002;2022-09-09T06:18:25;7.90;;;6.63;;
34920;SDS011;21128;50.016;20.002;2022-09-09T06:20:59;12.40;;;6.78;;
34920;SDS011;21128;50.016;20.002;2022-09-09T06:23:27;16.20;;;6.70;;
34920;SDS011;21128;50.016;20.002;2022-09-09T06:26:29;11.00;;;5.83;;
34920;SDS011;21128;50.016;20.002;2022-09-09T06:28:48;10.23;;;5.45;;
34920;SDS011;21128;50.016;20.002;2022-09-09T06:31:16;7.37;;;5.00;;
34920;SDS011;21128;50.016;20.002;2022-09-09T06:33:50;8.03;;;4.50;;
34920;SDS011;21128;50.016;20.002;2022-09-09T06:36:18;8.47;;;4.70;;
34920;SDS011;21128;50.016;20.002;2022-09-09T06:38:45;10.43;;;5.13;;
34920;SDS011;21128;50.016;20.002;2022-09-09T06:41:13;7.80;;;5.12;;
34920;SDS011;21128;50.016;20.002;2022-09-09T06:43:40;5.37;;;4.80;;
34920;SDS011;21128;50.016;20.002;2022-09-09T06:46:21;10.97;;;5.40;;
34920;SDS011;21128;50.016;20.002;2022-09-09T06:48:48;11.97;;;5.43;;
34920;SDS011;21128;50.016;20.002;2022-09-09T06:51:19;10.07;;;5.20;;
34920;SDS011;21128;50.016;20.002;2022-09-09T06:53:49;12.40;;;5.07;;
34920;SDS011;21128;50.016;20.002;2022-09-09T06:58:51;8.85;;;6.12;;
34920;SDS011;21128;50.016;20.002;2022-09-09T07:01:22;8.77;;;5.53;;
34920;SDS011;21128;50.016;20.002;2022-09-09T07:03:50;9.03;;;5.43;;
34920;SDS011;21128;50.016;20.002;2022-09-09T07:06:24;7.47;;;5.33;;
34920;SDS011;21128;50.016;20.002;2022-09-09T07:08:59;9.60;;;6.00;;
34920;SDS011;21128;50.016;20.002;2022-09-09T07:11:28;10.30;;;6.05;;
34920;SDS011;21128;50.016;20.002;2022-09-09T07:13:56;9.80;;;5.33;;
34920;SDS011;21128;50.016;20.002;2022-09-09T07:16:23;8.10;;;6.10;;
34920;SDS011;21128;50.016;20.002;2022-09-09T07:18:51;9.67;;;4.90;;
34920;SDS011;21128;50.016;20.002;2022-09-09T07:21:25;13.50;;;4.60;;
34920;SDS011;21128;50.016;20.002;2022-09-09T07:23:53;11.07;;;4.63;;
34920;SDS011;21128;50.016;20.002;2022-09-09T07:26:21;5.92;;;3.77;;
34920;SDS011;21128;50.016;20.002;2022-09-09T07:28:49;7.75;;;4.40;;
34920;SDS011;21128;50.016;20.002;2022-09-09T07:31:19;6.07;;;3.33;;
34920;SDS011;21128;50.016;20.002;2022-09-09T07:33:46;4.37;;;3.07;;
34920;SDS011;21128;50.016;20.002;2022-09-09T07:36:15;6.97;;;3.27;;
34920;SDS011;21128;50.016;20.002;2022-09-09T07:38:45;5.20;;;3.53;;
34920;SDS011;21128;50.016;20.002;2022-09-09T07:41:13;8.37;;;3.70;;
34920;SDS011;21128;50.016;20.002;2022-09-09T07:43:41;7.07;;;3.60;;
34920;SDS011;21128;50.016;20.002;2022-09-09T07:46:15;5.97;;;3.70;;
34920;SDS011;21128;50.016;20.002;2022-09-09T07:48:46;6.83;;;4.20;;
34920;SDS011;21128;50.016;20.002;2022-09-09T07:51:17;3.30;;;2.77;;
34920;SDS011;21128;50.016;20.002;2022-09-09T07:53:52;8.80;;;2.87;;
34920;SDS011;21128;50.016;20.002;2022-09-09T07:56:19;3.90;;;2.50;;
34920;SDS011;21128;50.016;20.002;2022-09-09T07:58:50;5.97;;;2.70;;
34920;SDS011;21128;50.016;20.002;2022-09-09T08:01:27;3.17;;;2.43;;
34920;SDS011;21128;50.016;20.002;2022-09-09T08:04:04;3.70;;;2.60;;
34920;SDS011;21128;50.016;20.002;2022-09-09T08:06:32;4.90;;;2.20;;
34920;SDS011;21128;50.016;20.002;2022-09-09T08:08:59;3.97;;;2.20;;
34920;SDS011;21128;50.016;20.002;2022-09-09T08:11:28;4.73;;;2.30;;
34920;SDS011;21128;50.016;20.002;2022-09-09T08:13:55;4.47;;;2.00;;
34920;SDS011;21128;50.016;20.002;2022-09-09T08:16:23;5.60;;;2.30;;
34920;SDS011;21128;50.016;20.002;2022-09-09T08:18:50;8.67;;;2.30;;
34920;SDS011;21128;50.016;20.002;2022-09-09T08:21:19;4.20;;;1.70;;
34920;SDS011;21128;50.016;20.002;2022-09-09T08:23:46;3.85;;;1.70;;
34920;SDS011;21128;50.016;20.002;2022-09-09T08:26:19;3.97;;;1.83;;
34920;SDS011;21128;50.016;20.002;2022-09-09T08:28:50;5.60;;;3.30;;
34920;SDS011;21128;50.016;20.002;2022-09-09T08:31:21;2.60;;;1.90;;
34920;SDS011;21128;50.016;20.002;2022-09-09T08:33:49;6.67;;;1.77;;
34920;SDS011;21128;50.016;20.002;2022-09-09T08:36:18;5.33;;;1.60;;
34920;SDS011;21128;50.016;20.002;2022-09-09T08:38:49;6.80;;;1.45;;
34920;SDS011;21128;50.016;20.002;2022-09-09T08:44:04;5.17;;;1.50;;
34920;SDS011;21128;50.016;20.002;2022-09-09T08:49:22;4.83;;;1.63;;
34920;SDS011;21128;50.016;20.002;2022-09-09T08:51:50;4.00;;;1.30;;
34920;SDS011;21128;50.016;20.002;2022-09-09T08:54:23;4.33;;;1.50;;
34920;SDS011;21128;50.016;20.002;2022-09-09T08:56:52;3.83;;;1.30;;
34920;SDS011;21128;50.016;20.002;2022-09-09T08:59:18;3.37;;;1.20;;
34920;SDS011;21128;50.016;20.002;2022-09-09T09:02:37;3.72;;;1.15;;
34920;SDS011;21128;50.016;20.002;2022-09-09T09:12:58;3.65;;;1.30;;
34920;SDS011;21128;50.016;20.002;2022-09-09T09:15:33;4.53;;;1.97;;
34920;SDS011;21128;50.016;20.002;2022-09-09T09:18:03;5.30;;;1.87;;
34920;SDS011;21128;50.016;20.002;2022-09-09T09:20:42;5.03;;;1.50;;
34920;SDS011;21128;50.016;20.002;2022-09-09T09:23:22;4.17;;;2.00;;
34920;SDS011;21128;50.016;20.002;2022-09-09T09:25:49;4.87;;;1.40;;
34920;SDS011;21128;50.016;20.002;2022-09-09T09:33:30;6.45;;;1.15;;
34920;SDS011;21128;50.016;20.002;2022-09-09T09:35:59;4.00;;;1.20;;
34920;SDS011;21128;50.016;20.002;2022-09-09T09:38:26;1.73;;;1.00;;
34920;SDS011;21128;50.016;20.002;2022-09-09T09:40:54;1.60;;;1.10;;
34920;SDS011;21128;50.016;20.002;2022-09-09T09:43:27;1.40;;;0.97;;
34920;SDS011;21128;50.016;20.002;2022-09-09T09:46:18;1.30;;;1.10;;
34920;SDS011;21128;50.016;20.002;2022-09-09T09:48:45;3.37;;;1.20;;
34920;SDS011;21128;50.016;20.002;2022-09-09T09:51:22;5.43;;;1.13;;
34920;SDS011;21128;50.016;20.002;2022-09-09T09:53:50;3.80;;;0.80;;
34920;SDS011;21128;50.016;20.002;2022-09-09T09:56:26;3.83;;;1.13;;
34920;SDS011;21128;50.016;20.002;2022-09-09T09:58:53;4.13;;;1.00;;
34920;SDS011;21128;50.016;20.002;2022-09-09T10:04:02;3.87;;;1.13;;
34920;SDS011;21128;50.016;20.002;2022-09-09T10:06:30;2.93;;;1.90;;
34920;SDS011;21128;50.016;20.002;2022-09-09T10:08:57;1.77;;;1.03;;
34920;SDS011;21128;50.016;20.002;2022-09-09T10:19:13;5.70;;;1.10;;
34920;SDS011;21128;50.016;20.002;2022-09-09T10:40:28;1.50;;;1.07;;
34920;SDS011;21128;50.016;20.002;2022-09-09T10:43:16;2.63;;;1.40;;
34920;SDS011;21128;50.016;20.002;2022-09-09T10:45:56;2.00;;;0.93;;
34920;SDS011;21128;50.016;20.002;2022-09-09T10:56:30;3.70;;;0.67;;
34920;SDS011;21128;50.016;20.002;2022-09-09T10:59:00;0.65;;;0.60;;
34920;SDS011;21128;50.016;20.002;2022-09-09T11:01:30;0.80;;;0.70;;
34920;SDS011;21128;50.016;20.002;2022-09-09T11:04:00;1.27;;;0.80;;
34920;SDS011;21128;50.016;20.002;2022-09-09T11:06:37;1.80;;;0.60;;
34920;SDS011;21128;50.016;20.002;2022-09-09T11:09:08;2.50;;;0.70;;
34920;SDS011;21128;50.016;20.002;2022-09-09T11:11:53;2.67;;;1.00;;
34920;SDS011;21128;50.016;20.002;2022-09-09T11:16:52;0.93;;;0.70;;
34920;SDS011;21128;50.016;20.002;2022-09-09T11:19:37;1.63;;;0.60;;
34920;SDS011;21128;50.016;20.002;2022-09-09T11:34:56;0.87;;;0.60;;
34920;SDS011;21128;50.016;20.002;2022-09-09T11:40:15;2.50;;;0.53;;
34920;SDS011;21128;50.016;20.002;2022-09-09T11:42:43;1.53;;;0.60;;
34920;SDS011;21128;50.016;20.002;2022-09-09T11:48:02;1.13;;;0.57;;
34920;SDS011;21128;50.016;20.002;2022-09-09T11:53:03;0.83;;;0.50;;
34920;SDS011;21128;50.016;20.002;2022-09-09T11:55:31;0.40;;;0.30;;
34920;SDS011;21128;50.016;20.002;2022-09-09T11:58:03;0.93;;;0.65;;
34920;SDS011;21128;50.016;20.002;2022-09-09T12:05:53;0.90;;;0.50;;
34920;SDS011;21128;50.016;20.002;2022-09-09T12:08:25;1.63;;;0.37;;
34920;SDS011;21128;50.016;20.002;2022-09-09T12:10:58;0.67;;;0.27;;
34920;SDS011;21128;50.016;20.002;2022-09-09T12:13:26;2.40;;;0.50;;
34920;SDS011;21128;50.016;20.002;2022-09-09T12:18:32;2.75;;;0.40;;
34920;SDS011;21128;50.016;20.002;2022-09-09T12:23:52;4.63;;;0.80;;
34920;SDS011;21128;50.016;20.002;2022-09-09T12:26:32;3.60;;;0.57;;
34920;SDS011;21128;50.016;20.002;2022-09-09T12:31:47;2.83;;;0.43;;
34920;SDS011;21128;50.016;20.002;2022-09-09T12:36:54;2.70;;;0.70;;
34920;SDS011;21128;50.016;20.002;2022-09-09T12:39:28;2.70;;;1.07;;
34920;SDS011;21128;50.016;20.002;2022-09-09T12:41:56;1.43;;;0.80;;
34920;SDS011;21128;50.016;20.002;2022-09-09T12:44:24;2.53;;;0.60;;
34920;SDS011;21128;50.016;20.002;2022-09-09T12:47:11;1.60;;;0.70;;
34920;SDS011;21128;50.016;20.002;2022-09-09T12:49:39;0.90;;;0.60;;
34920;SDS011;21128;50.016;20.002;2022-09-09T12:52:15;1.53;;;0.60;;
34920;SDS011;21128;50.016;20.002;2022-09-09T12:54:44;0.87;;;0.53;;
34920;SDS011;21128;50.016;20.002;2022-09-09T12:57:13;2.60;;;1.00;;
34920;SDS011;21128;50.016;20.002;2022-09-09T12:59:42;5.60;;;1.05;;
34920;SDS011;21128;50.016;20.002;2022-09-09T13:02:16;1.33;;;0.60;;
34920;SDS011;21128;50.016;20.002;2022-09-09T13:07:13;4.20;;;0.80;;
34920;SDS011;21128;50.016;20.002;2022-09-09T13:09:43;3.90;;;0.70;;
34920;SDS011;21128;50.016;20.002;2022-09-09T13:12:14;1.30;;;0.60;;
34920;SDS011;21128;50.016;20.002;2022-09-09T13:14:48;1.17;;;0.60;;
34920;SDS011;21128;50.016;20.002;2022-09-09T13:17:18;1.67;;;0.90;;
34920;SDS011;21128;50.016;20.002;2022-09-09T13:19:46;2.07;;;0.87;;
34920;SDS011;21128;50.016;20.002;2022-09-09T13:22:33;1.22;;;0.68;;
34920;SDS011;21128;50.016;20.002;2022-09-09T13:27:38;1.90;;;0.93;;
34920;SDS011;21128;50.016;20.002;2022-09-09T13:33:01;1.15;;;0.70;;
34920;SDS011;21128;50.016;20.002;2022-09-09T13:35:35;3.10;;;1.10;;
34920;SDS011;21128;50.016;20.002;2022-09-09T13:38:08;1.67;;;0.50;;
34920;SDS011;21128;50.016;20.002;2022-09-09T13:40:38;3.83;;;0.90;;
34920;SDS011;21128;50.016;20.002;2022-09-09T13:43:04;1.77;;;0.67;;
34920;SDS011;21128;50.016;20.002;2022-09-09T13:45:31;2.47;;;0.98;;
34920;SDS011;21128;50.016;20.002;2022-09-09T13:48:18;0.83;;;0.40;;
34920;SDS011;21128;50.016;20.002;2022-09-09T13:50:53;1.20;;;0.50;;
34920;SDS011;21128;50.016;20.002;2022-09-09T13:53:20;0.50;;;0.50;;
34920;SDS011;21128;50.016;20.002;2022-09-09T13:55:46;1.03;;;0.50;;
34920;SDS011;21128;50.016;20.002;2022-09-09T13:58:16;1.80;;;1.00;;
34920;SDS011;21128;50.016;20.002;2022-09-09T14:00:45;1.27;;;0.70;;
34920;SDS011;21128;50.016;20.002;2022-09-09T14:03:12;1.60;;;0.50;;
34920;SDS011;21128;50.016;20.002;2022-09-09T14:05:40;2.50;;;0.72;;
34920;SDS011;21128;50.016;20.002;2022-09-09T14:08:07;2.83;;;0.80;;
34920;SDS011;21128;50.016;20.002;2022-09-09T14:10:34;2.95;;;0.65;;
34920;SDS011;21128;50.016;20.002;2022-09-09T14:13:03;0.83;;;0.40;;
34920;SDS011;21128;50.016;20.002;2022-09-09T14:15:30;1.73;;;0.90;;
34920;SDS011;21128;50.016;20.002;2022-09-09T14:17:57;2.97;;;0.70;;
34920;SDS011;21128;50.016;20.002;2022-09-09T14:20:25;1.63;;;0.83;;
34920;SDS011;21128;50.016;20.002;2022-09-09T14:22:58;1.10;;;0.60;;
34920;SDS011;21128;50.016;20.002;2022-09-09T14:25:25;2.60;;;0.60;;
34920;SDS011;21128;50.016;20.002;2022-09-09T14:27:52;2.60;;;0.87;;
34920;SDS011;21128;50.016;20.002;2022-09-09T14:30:18;0.83;;;0.50;;
34920;SDS011;21128;50.016;20.002;2022-09-09T14:32:51;0.70;;;0.43;;
34920;SDS011;21128;50.016;20.002;2022-09-09T14:35:18;1.13;;;0.70;;
34920;SDS011;21128;50.016;20.002;2022-09-09T14:37:51;2.00;;;0.72;;
34920;SDS011;21128;50.016;20.002;2022-09-09T14:40:18;1.80;;;0.50;;
34920;SDS011;21128;50.016;20.002;2022-09-09T14:42:44;3.70;;;0.80;;
34920;SDS011;21128;50.016;20.002;2022-09-09T14:45:11;2.37;;;0.90;;
34920;SDS011;21128;50.016;20.002;2022-09-09T14:47:58;0.97;;;0.67;;
34920;SDS011;21128;50.016;20.002;2022-09-09T14:50:26;2.17;;;0.90;;
34920;SDS011;21128;50.016;20.002;2022-09-09T14:52:53;3.53;;;0.73;;
34920;SDS011;21128;50.016;20.002;2022-09-09T14:55:19;2.00;;;0.87;;
34920;SDS011;21128;50.016;20.002;2022-09-09T14:57:47;2.08;;;0.80;;
34920;SDS011;21128;50.016;20.002;2022-09-09T15:00:14;1.37;;;0.70;;
34920;SDS011;21128;50.016;20.002;2022-09-09T15:02:42;1.57;;;0.93;;
34920;SDS011;21128;50.016;20.002;2022-09-09T15:05:09;1.80;;;0.50;;
34920;SDS011;21128;50.016;20.002;2022-09-09T15:07:36;1.27;;;0.80;;
34920;SDS011;21128;50.016;20.002;2022-09-09T15:10:04;3.83;;;0.90;;
34920;SDS011;21128;50.016;20.002;2022-09-09T15:12:31;6.67;;;1.27;;
34920;SDS011;21128;50.016;20.002;2022-09-09T15:14:59;6.40;;;1.75;;
34920;SDS011;21128;50.016;20.002;2022-09-09T15:17:26;3.10;;;1.12;;
34920;SDS011;21128;50.016;20.002;2022-09-09T15:19:53;7.43;;;1.90;;
34920;SDS011;21128;50.016;20.002;2022-09-09T15:22:27;8.13;;;1.20;;
34920;SDS011;21128;50.016;20.002;2022-09-09T15:24:54;2.07;;;1.17;;
34920;SDS011;21128;50.016;20.002;2022-09-09T15:27:21;4.60;;;1.10;;
34920;SDS011;21128;50.016;20.002;2022-09-09T15:29:55;7.83;;;1.23;;
34920;SDS011;21128;50.016;20.002;2022-09-09T15:32:24;4.95;;;1.45;;
34920;SDS011;21128;50.016;20.002;2022-09-09T15:34:51;5.17;;;1.40;;
34920;SDS011;21128;50.016;20.002;2022-09-09T15:37:19;6.33;;;1.30;;
34920;SDS011;21128;50.016;20.002;2022-09-09T15:39:46;7.70;;;1.37;;
34920;SDS011;21128;50.016;20.002;2022-09-09T15:42:12;3.13;;;1.40;;
34920;SDS011;21128;50.016;20.002;2022-09-09T15:44:40;3.63;;;1.30;;
34920;SDS011;21128;50.016;20.002;2022-09-09T15:47:27;4.90;;;1.60;;
34920;SDS011;21128;50.016;20.002;2022-09-09T15:49:54;6.03;;;2.00;;
34920;SDS011;21128;50.016;20.002;2022-09-09T15:52:20;6.43;;;1.90;;
34920;SDS011;21128;50.016;20.002;2022-09-09T15:54:47;7.53;;;1.60;;
34920;SDS011;21128;50.016;20.002;2022-09-09T15:57:14;1.33;;;1.03;;
34920;SDS011;21128;50.016;20.002;2022-09-09T15:59:41;2.10;;;1.00;;
34920;SDS011;21128;50.016;20.002;2022-09-09T16:02:08;5.00;;;1.50;;
34920;SDS011;21128;50.016;20.002;2022-09-09T16:04:35;13.85;;;4.25;;
34920;SDS011;21128;50.016;20.002;2022-09-09T16:07:03;2.87;;;2.00;;
34920;SDS011;21128;50.016;20.002;2022-09-09T16:09:30;8.47;;;2.50;;
34920;SDS011;21128;50.016;20.002;2022-09-09T16:11:57;5.00;;;1.90;;
34920;SDS011;21128;50.016;20.002;2022-09-09T16:14:24;3.30;;;1.40;;
34920;SDS011;21128;50.016;20.002;2022-09-09T16:16:52;5.40;;;1.00;;
34920;SDS011;21128;50.016;20.002;2022-09-09T16:19:19;2.77;;;1.30;;
34920;SDS011;21128;50.016;20.002;2022-09-09T16:21:52;3.67;;;1.10;;
34920;SDS011;21128;50.016;20.002;2022-09-09T16:24:18;5.53;;;1.93;;
34920;SDS011;21128;50.016;20.002;2022-09-09T16:26:47;2.73;;;1.27;;
34920;SDS011;21128;50.016;20.002;2022-09-09T16:29:14;6.93;;;1.20;;
34920;SDS011;21128;50.016;20.002;2022-09-09T16:31:48;4.30;;;1.60;;
34920;SDS011;21128;50.016;20.002;2022-09-09T16:34:16;4.53;;;1.43;;
34920;SDS011;21128;50.016;20.002;2022-09-09T16:36:43;3.73;;;1.70;;
34920;SDS011;21128;50.016;20.002;2022-09-09T16:39:12;6.13;;;1.73;;
34920;SDS011;21128;50.016;20.002;2022-09-09T16:41:46;16.10;;;9.45;;
34920;SDS011;21128;50.016;20.002;2022-09-09T16:44:14;5.77;;;2.77;;
34920;SDS011;21128;50.016;20.002;2022-09-09T16:47:01;4.73;;;2.10;;
34920;SDS011;21128;50.016;20.002;2022-09-09T16:49:29;6.53;;;2.00;;
34920;SDS011;21128;50.016;20.002;2022-09-09T16:51:57;9.73;;;2.27;;
34920;SDS011;21128;50.016;20.002;2022-09-09T16:54:24;6.93;;;2.10;;
34920;SDS011;21128;50.016;20.002;2022-09-09T16:56:53;5.37;;;2.97;;
34920;SDS011;21128;50.016;20.002;2022-09-09T16:59:20;9.73;;;3.33;;
34920;SDS011;21128;50.016;20.002;2022-09-09T17:01:48;5.60;;;2.53;;
34920;SDS011;21128;50.016;20.002;2022-09-09T17:04:16;5.80;;;2.90;;
34920;SDS011;21128;50.016;20.002;2022-09-09T17:06:47;6.97;;;2.57;;
34920;SDS011;21128;50.016;20.002;2022-09-09T17:09:15;7.70;;;3.33;;
34920;SDS011;21128;50.016;20.002;2022-09-09T17:11:49;6.90;;;3.13;;
34920;SDS011;21128;50.016;20.002;2022-09-09T17:14:18;6.10;;;3.20;;
34920;SDS011;21128;50.016;20.002;2022-09-09T17:16:45;7.70;;;3.30;;